Time;durP1;ratioP1;P1;durP2;ratioP2;P2;SDS_P1;SDS_P2;PMS_P1;PMS_P2;Temp;Humidity;BMP_temperature;BMP_pressure;BME280_temperature;BME280_humidity;BME280_pressure;Samples;Min_cycle;Max_cycle;Signal;HPM_P1;HPM_P2
2022/05/06 00:02:00;;;;;;;59.10;3.67;;;;;;;;;;5055231;28;20505;-75
2022/05/06 00:04:27;;;;;;;59.30;3.73;;;;;;;;;;5054773;28;20440;-76
2022/05/06 00:06:55;;;;;;;58.40;2.90;;;;;;;;;;5054753;28;20816;-75
2022/05/06 00:09:23;;;;;;;60.70;4.50;;;;;;;;;;5053989;28;20475;-75
2022/05/06 00:11:51;;;;;;;58.60;2.90;;;;;;;;;;5054786;28;20886;-75
2022/05/06 00:14:19;;;;;;;60.80;4.60;;;;;;;;;;5054668;28;20459;-75
2022/05/06 00:16:47;;;;;;;58.77;3.30;;;;;;;;;;5054554;28;20452;-75
2022/05/06 00:19:14;;;;;;;58.67;2.90;;;;;;;;;;5053854;28;20468;-75
2022/05/06 00:21:41;;;;;;;58.70;2.90;;;;;;;;;;5061200;28;20624;-75
2022/05/06 00:24:08;;;;;;;58.87;3.23;;;;;;;;;;5074753;28;20550;-76
2022/05/06 00:26:35;;;;;;;60.43;5.23;;;;;;;;;;5074268;28;21012;-75
2022/05/06 00:29:03;;;;;;;61.27;3.53;;;;;;;;;;5073789;28;20995;-75
2022/05/06 00:31:31;;;;;;;59.07;3.67;;;;;;;;;;5074594;28;20939;-75
2022/05/06 00:33:58;;;;;;;72.23;4.10;;;;;;;;;;5074238;28;20528;-75
2022/05/06 00:36:26;;;;;;;60.47;4.63;;;;;;;;;;5074014;28;20546;-75
2022/05/06 00:38:54;;;;;;;58.90;3.20;;;;;;;;;;5073730;28;20531;-75
2022/05/06 00:41:21;;;;;;;59.30;4.40;;;;;;;;;;5074126;28;20451;-76
2022/05/06 00:43:49;;;;;;;58.63;3.00;;;;;;;;;;5074266;28;20483;-75
2022/05/06 00:46:17;;;;;;;58.67;3.40;;;;;;;;;;5074012;28;20617;-76
2022/05/06 00:48:47;;;;;;;59.47;4.50;;;;;;;;;;5072889;28;20456;-75
2022/05/06 00:51:14;;;;;;;59.67;4.80;;;;;;;;;;5073150;28;20862;-75
2022/05/06 00:53:43;;;;;;;62.67;3.83;;;;;;;;;;5061044;28;20544;-75
2022/05/06 00:56:11;;;;;;;58.73;3.10;;;;;;;;;;5053656;28;20458;-76
2022/05/06 00:58:38;;;;;;;59.30;4.67;;;;;;;;;;5053215;28;20459;-75
2022/05/06 01:01:06;;;;;;;59.47;4.30;;;;;;;;;;5053686;28;21002;-75
2022/05/06 01:03:33;;;;;;;58.67;3.40;;;;;;;;;;5053540;28;20525;-75
2022/05/06 01:06:04;;;;;;;59.83;3.90;;;;;;;;;;5053824;28;20534;-75
2022/05/06 01:08:31;;;;;;;59.30;4.40;;;;;;;;;;5053053;28;20452;-75
2022/05/06 01:10:58;;;;;;;59.50;3.20;;;;;;;;;;5053546;28;20837;-75
2022/05/06 01:13:27;;;;;;;60.70;3.83;;;;;;;;;;5053663;28;20455;-75
2022/05/06 01:15:55;;;;;;;60.17;5.10;;;;;;;;;;5053456;28;20455;-75
2022/05/06 01:18:23;;;;;;;59.80;4.67;;;;;;;;;;5059525;28;20447;-75
2022/05/06 01:20:51;;;;;;;58.70;3.20;;;;;;;;;;5073274;28;20491;-75
2022/05/06 01:23:20;;;;;;;59.20;3.97;;;;;;;;;;5072484;28;20649;-76
2022/05/06 01:25:47;;;;;;;58.50;3.07;;;;;;;;;;5070317;28;20870;-75
2022/05/06 01:28:15;;;;;;;62.63;5.77;;;;;;;;;;5073033;28;20455;-75
2022/05/06 01:30:44;;;;;;;59.07;4.03;;;;;;;;;;5073215;28;20498;-75
2022/05/06 01:33:12;;;;;;;59.80;4.70;;;;;;;;;;5073135;28;20456;-75
2022/05/06 01:35:41;;;;;;;58.87;3.00;;;;;;;;;;5073145;28;20460;-76
2022/05/06 01:38:09;;;;;;;60.80;4.77;;;;;;;;;;5072283;28;20996;-75
2022/05/06 01:40:40;;;;;;;62.70;4.90;;;;;;;;;;5073084;28;20517;-75
2022/05/06 01:43:11;;;;;;;59.90;5.07;;;;;;;;;;5073082;28;20530;-75
2022/05/06 01:45:40;;;;;;;58.60;3.27;;;;;;;;;;5072906;28;20945;-76
2022/05/06 01:48:08;;;;;;;58.77;3.67;;;;;;;;;;5072204;28;20447;-76
2022/05/06 01:50:37;;;;;;;59.60;4.70;;;;;;;;;;5072601;28;20478;-75
2022/05/06 01:53:04;;;;;;;59.10;3.93;;;;;;;;;;5072966;28;20455;-75
2022/05/06 01:55:32;;;;;;;62.60;4.47;;;;;;;;;;5071976;28;20534;-76
2022/05/06 01:58:00;;;;;;;58.73;3.10;;;;;;;;;;5069249;28;20454;-75
2022/05/06 02:00:28;;;;;;;59.00;4.00;;;;;;;;;;5072194;28;20555;-75
2022/05/06 02:02:56;;;;;;;58.90;3.67;;;;;;;;;;5072285;28;20478;-75
2022/05/06 02:05:24;;;;;;;59.10;4.07;;;;;;;;;;5072164;28;20826;-75
2022/05/06 02:07:52;;;;;;;59.60;4.60;;;;;;;;;;5072001;28;20447;-75
2022/05/06 02:10:20;;;;;;;61.10;4.43;;;;;;;;;;5072328;28;20582;-75
2022/05/06 02:12:48;;;;;;;58.57;3.23;;;;;;;;;;5072285;28;20994;-75
2022/05/06 02:15:17;;;;;;;60.17;4.27;;;;;;;;;;5072432;28;20477;-75
2022/05/06 02:17:44;;;;;;;59.13;4.37;;;;;;;;;;5071547;28;20447;-75
2022/05/06 02:20:12;;;;;;;59.30;3.97;;;;;;;;;;5072066;28;20558;-75
2022/05/06 02:22:42;;;;;;;58.70;3.47;;;;;;;;;;5072074;28;20449;-76
2022/05/06 02:25:10;;;;;;;59.77;3.90;;;;;;;;;;5072194;28;20455;-75
2022/05/06 02:27:37;;;;;;;59.30;4.83;;;;;;;;;;5070879;28;20453;-75
2022/05/06 02:35:36;;;;;;;59.40;4.20;;;;;;;;;;5052224;28;20823;-76
2022/05/06 02:38:03;;;;;;;59.60;3.63;;;;;;;;;;5051583;28;20448;-75
2022/05/06 02:40:31;;;;;;;59.10;4.27;;;;;;;;;;5051776;28;20525;-76
2022/05/06 02:42:58;;;;;;;61.13;4.80;;;;;;;;;;5051737;28;20539;-75
2022/05/06 02:45:25;;;;;;;58.90;3.47;;;;;;;;;;5052038;28;20531;-75
2022/05/06 02:47:54;;;;;;;58.67;3.40;;;;;;;;;;5051399;28;20456;-75
2022/05/06 02:50:21;;;;;;;59.77;3.47;;;;;;;;;;5052101;28;20501;-76
2022/05/06 02:52:48;;;;;;;59.30;3.53;;;;;;;;;;5051657;28;20571;-75
2022/05/06 02:55:16;;;;;;;59.73;3.40;;;;;;;;;;5051506;28;20535;-75
2022/05/06 02:57:43;;;;;;;59.97;4.60;;;;;;;;;;5051187;28;20447;-76
2022/05/06 03:00:10;;;;;;;60.80;4.80;;;;;;;;;;5053144;28;20481;-75
2022/05/06 03:02:38;;;;;;;60.30;3.23;;;;;;;;;;5071780;28;20453;-75
2022/05/06 03:05:07;;;;;;;59.10;3.70;;;;;;;;;;5071795;28;20451;-75
2022/05/06 03:07:34;;;;;;;58.67;2.87;;;;;;;;;;5071143;28;20940;-76
2022/05/06 03:10:01;;;;;;;59.60;3.30;;;;;;;;;;5071286;28;20467;-74
2022/05/06 03:12:30;;;;;;;58.67;3.30;;;;;;;;;;5072780;28;20566;-75
2022/05/06 03:14:58;;;;;;;58.47;3.00;;;;;;;;;;5075756;28;20455;-75
2022/05/06 03:17:25;;;;;;;58.53;2.80;;;;;;;;;;5075007;28;20483;-76
2022/05/06 03:19:52;;;;;;;58.90;3.40;;;;;;;;;;5075556;28;20913;-76
2022/05/06 03:22:21;;;;;;;58.33;2.97;;;;;;;;;;5075529;28;20538;-75
2022/05/06 03:24:49;;;;;;;58.93;3.27;;;;;;;;;;5075679;28;20454;-76
2022/05/06 03:30:00;;;;;;;59.60;4.57;;;;;;;;;;5075452;28;20985;-76
2022/05/06 03:32:28;;;;;;;58.63;3.40;;;;;;;;;;5072455;28;20491;-76
2022/05/06 03:34:56;;;;;;;58.87;3.83;;;;;;;;;;5076239;28;20523;-75
2022/05/06 03:37:25;;;;;;;61.20;5.27;;;;;;;;;;5074971;28;20453;-76
2022/05/06 03:39:52;;;;;;;59.00;3.77;;;;;;;;;;5075147;28;21003;-76
2022/05/06 03:42:20;;;;;;;59.17;3.97;;;;;;;;;;5075453;28;21166;-76
2022/05/06 03:44:47;;;;;;;58.83;3.27;;;;;;;;;;5075123;28;20451;-76
2022/05/06 03:47:15;;;;;;;59.67;3.87;;;;;;;;;;5074538;28;20482;-76
2022/05/06 03:49:42;;;;;;;58.33;3.10;;;;;;;;;;5075089;28;20482;-76
2022/05/06 03:52:08;;;;;;;58.80;3.60;;;;;;;;;;5075174;28;20549;-75
2022/05/06 03:54:37;;;;;;;58.57;3.30;;;;;;;;;;5075088;28;20447;-75
2022/05/06 03:57:04;;;;;;;59.57;3.67;;;;;;;;;;5074922;28;20538;-75
2022/05/06 03:59:31;;;;;;;58.40;2.87;;;;;;;;;;5074476;28;20475;-76
2022/05/06 04:01:58;;;;;;;58.80;3.30;;;;;;;;;;5074768;28;20444;-75
2022/05/06 04:04:26;;;;;;;58.47;2.90;;;;;;;;;;5072438;28;20482;-76
2022/05/06 04:06:53;;;;;;;59.43;4.10;;;;;;;;;;5074932;28;20592;-75
2022/05/06 04:09:21;;;;;;;61.50;4.10;;;;;;;;;;5074050;28;20910;-76
2022/05/06 04:11:49;;;;;;;61.60;5.30;;;;;;;;;;5074731;28;20494;-75
2022/05/06 04:14:17;;;;;;;58.87;3.97;;;;;;;;;;5074633;28;20486;-75
2022/05/06 04:16:44;;;;;;;76.93;4.70;;;;;;;;;;5074418;28;20490;-75
2022/05/06 04:19:11;;;;;;;59.30;3.27;;;;;;;;;;5073945;28;20459;-76
2022/05/06 04:24:23;;;;;;;59.00;3.57;;;;;;;;;;5074017;28;20530;-76
2022/05/06 04:26:52;;;;;;;58.87;3.47;;;;;;;;;;5074760;28;20530;-76
2022/05/06 04:29:19;;;;;;;59.00;3.50;;;;;;;;;;5074116;28;20467;-76
2022/05/06 04:31:46;;;;;;;59.20;3.80;;;;;;;;;;5074728;28;20576;-75
2022/05/06 04:34:13;;;;;;;60.10;4.43;;;;;;;;;;5071039;28;20930;-75
2022/05/06 04:36:40;;;;;;;58.87;3.73;;;;;;;;;;5074150;28;21023;-76
2022/05/06 04:39:07;;;;;;;58.20;2.70;;;;;;;;;;5073465;28;20962;-76
2022/05/06 04:41:35;;;;;;;59.40;3.20;;;;;;;;;;5073974;28;20486;-76
2022/05/06 04:44:03;;;;;;;58.37;2.80;;;;;;;;;;5074364;28;20496;-75
2022/05/06 04:46:30;;;;;;;58.87;3.30;;;;;;;;;;5074270;28;20448;-76
2022/05/06 04:48:57;;;;;;;58.57;3.20;;;;;;;;;;5073652;28;20832;-76
2022/05/06 04:51:25;;;;;;;58.63;3.40;;;;;;;;;;5074350;28;20522;-75
2022/05/06 04:53:54;;;;;;;58.80;3.10;;;;;;;;;;5073872;28;20539;-76
2022/05/06 04:56:22;;;;;;;58.37;2.70;;;;;;;;;;5073791;28;20521;-76
2022/05/06 04:58:49;;;;;;;59.30;5.27;;;;;;;;;;5073380;28;20544;-76
2022/05/06 05:01:18;;;;;;;61.37;4.70;;;;;;;;;;5073788;28;20471;-75
2022/05/06 05:03:45;;;;;;;61.10;4.90;;;;;;;;;;5073778;28;20533;-75
2022/05/06 05:06:13;;;;;;;58.40;2.70;;;;;;;;;;5071005;28;20838;-75
2022/05/06 05:08:40;;;;;;;59.97;3.20;;;;;;;;;;5073069;28;20442;-75
2022/05/06 05:11:08;;;;;;;58.67;3.00;;;;;;;;;;5073852;28;20498;-75
2022/05/06 05:13:38;;;;;;;58.67;3.57;;;;;;;;;;5073267;28;20498;-75
2022/05/06 05:16:06;;;;;;;58.43;3.03;;;;;;;;;;5073716;28;20577;-75
2022/05/06 05:18:34;;;;;;;58.53;3.70;;;;;;;;;;5072846;28;20483;-74
2022/05/06 05:21:02;;;;;;;58.80;3.23;;;;;;;;;;5073341;28;21015;-75
2022/05/06 05:23:31;;;;;;;58.57;3.33;;;;;;;;;;5073100;28;20960;-75
2022/05/06 05:25:58;;;;;;;58.83;3.50;;;;;;;;;;5073642;28;20458;-75
2022/05/06 05:28:26;;;;;;;58.33;2.80;;;;;;;;;;5073021;28;20542;-75
2022/05/06 05:30:53;;;;;;;58.97;3.40;;;;;;;;;;5073504;28;20471;-75
2022/05/06 05:33:20;;;;;;;58.57;3.07;;;;;;;;;;5073230;28;20571;-75
2022/05/06 05:35:49;;;;;;;59.70;4.60;;;;;;;;;;5073314;28;20475;-75
2022/05/06 05:38:16;;;;;;;58.37;3.20;;;;;;;;;;5072657;28;20538;-75
2022/05/06 05:40:43;;;;;;;58.53;2.77;;;;;;;;;;5070025;28;20641;-75
2022/05/06 05:48:19;;;;;;;59.40;4.20;;;;;;;;;;5072993;28;20518;-75
2022/05/06 05:48:42;;;;;;;58.60;3.40;;;;;;;;;;5072570;28;20430;-76
2022/05/06 05:51:11;;;;;;;58.40;2.90;;;;;;;;;;5072649;28;20931;-75
2022/05/06 05:53:38;;;;;;;59.30;2.90;;;;;;;;;;5072734;28;20469;-75
2022/05/06 05:56:05;;;;;;;58.60;2.80;;;;;;;;;;5073258;28;20474;-75
2022/05/06 05:58:34;;;;;;;58.93;4.13;;;;;;;;;;5072253;28;20539;-75
2022/05/06 06:01:01;;;;;;;60.50;3.00;;;;;;;;;;5072475;28;20474;-75
2022/05/06 06:03:28;;;;;;;59.07;3.40;;;;;;;;;;5072619;28;20443;-75
2022/05/06 06:05:56;;;;;;;59.60;3.83;;;;;;;;;;5072562;28;20963;-75
2022/05/06 06:08:24;;;;;;;58.60;2.83;;;;;;;;;;5071962;28;20454;-75
2022/05/06 06:10:51;;;;;;;58.80;3.23;;;;;;;;;;5069231;28;20477;-75
2022/05/06 06:13:18;;;;;;;62.10;5.13;;;;;;;;;;5072055;28;20573;-75
2022/05/06 06:15:46;;;;;;;58.77;3.10;;;;;;;;;;5072541;28;20819;-75
2022/05/06 06:18:14;;;;;;;59.40;3.40;;;;;;;;;;5071763;28;20887;-75
2022/05/06 06:20:41;;;;;;;59.30;4.27;;;;;;;;;;5071987;28;20476;-74
2022/05/06 06:23:09;;;;;;;58.60;3.30;;;;;;;;;;5072181;28;20889;-76
2022/05/06 06:25:37;;;;;;;60.57;3.90;;;;;;;;;;5071942;28;20458;-75
2022/05/06 06:28:05;;;;;;;59.00;3.20;;;;;;;;;;5071079;28;20983;-75
2022/05/06 06:30:32;;;;;;;58.33;2.90;;;;;;;;;;5071865;28;20479;-75
2022/05/06 06:32:59;;;;;;;59.67;3.30;;;;;;;;;;5071761;28;20536;-75
2022/05/06 06:35:26;;;;;;;58.30;2.77;;;;;;;;;;5071874;28;20538;-75
2022/05/06 06:37:54;;;;;;;58.90;3.37;;;;;;;;;;5071043;28;21036;-75
2022/05/06 06:40:21;;;;;;;58.70;3.30;;;;;;;;;;5071366;28;20562;-75
2022/05/06 06:42:49;;;;;;;59.87;4.83;;;;;;;;;;5061085;28;20448;-75
2022/05/06 06:45:16;;;;;;;58.37;2.87;;;;;;;;;;5051910;28;20526;-75
2022/05/06 06:47:44;;;;;;;59.37;4.60;;;;;;;;;;5050620;28;20453;-75
2022/05/06 06:50:11;;;;;;;58.70;2.70;;;;;;;;;;5051646;28;20560;-75
2022/05/06 06:52:39;;;;;;;58.30;3.47;;;;;;;;;;5051386;28;20591;-75
2022/05/06 06:55:06;;;;;;;58.47;2.80;;;;;;;;;;5051902;28;20868;-75
2022/05/06 06:57:33;;;;;;;58.90;3.17;;;;;;;;;;5051118;28;20827;-75
2022/05/06 07:00:02;;;;;;;58.37;3.10;;;;;;;;;;5051541;28;21055;-75
2022/05/06 07:02:29;;;;;;;57.93;2.50;;;;;;;;;;5051750;28;20523;-75
2022/05/06 07:04:57;;;;;;;58.43;3.10;;;;;;;;;;5051577;28;20449;-76
2022/05/06 07:12:54;;;;;;;59.37;3.03;;;;;;;;;;5050788;28;20487;-75
2022/05/06 07:15:23;;;;;;;58.20;3.00;;;;;;;;;;5062010;28;20448;-75
2022/05/06 07:17:50;;;;;;;58.73;3.60;;;;;;;;;;5070503;28;20447;-75
2022/05/06 07:20:18;;;;;;;58.60;3.60;;;;;;;;;;5071483;28;20469;-75
2022/05/06 07:22:45;;;;;;;58.90;3.53;;;;;;;;;;5071548;28;20441;-75
2022/05/06 07:25:12;;;;;;;58.57;3.20;;;;;;;;;;5071364;28;20858;-75
2022/05/06 07:27:39;;;;;;;58.50;2.90;;;;;;;;;;5070876;28;20898;-75
2022/05/06 07:30:08;;;;;;;58.57;3.23;;;;;;;;;;5071150;28;21043;-75
2022/05/06 07:32:37;;;;;;;59.90;3.37;;;;;;;;;;5070976;28;20490;-76
2022/05/06 07:35:05;;;;;;;58.37;3.17;;;;;;;;;;5071147;28;20455;-75
2022/05/06 07:37:33;;;;;;;58.70;4.13;;;;;;;;;;5070519;28;20457;-75
2022/05/06 07:40:00;;;;;;;58.63;3.60;;;;;;;;;;5071026;28;20567;-75
2022/05/06 07:42:28;;;;;;;59.30;3.83;;;;;;;;;;5071280;28;20535;-75
2022/05/06 07:44:56;;;;;;;58.60;3.03;;;;;;;;;;5070129;28;20458;-75
2022/05/06 07:47:23;;;;;;;58.70;3.37;;;;;;;;;;5067453;28;20449;-75
2022/05/06 07:49:51;;;;;;;61.93;3.60;;;;;;;;;;5071403;28;20463;-73
2022/05/06 07:52:19;;;;;;;58.90;3.80;;;;;;;;;;5071293;28;20487;-77
2022/05/06 07:54:46;;;;;;;58.70;3.57;;;;;;;;;;5071527;28;20951;-76
2022/05/06 07:57:13;;;;;;;58.80;3.23;;;;;;;;;;5070331;28;20491;-76
2022/05/06 07:59:40;;;;;;;59.00;3.30;;;;;;;;;;5074019;28;20507;-78
2022/05/06 08:04:54;;;;;;;58.87;3.30;;;;;;;;;;5073768;28;20430;-76
2022/05/06 08:07:21;;;;;;;58.43;3.03;;;;;;;;;;5064064;28;20902;-77
2022/05/06 08:09:48;;;;;;;58.47;3.27;;;;;;;;;;5054708;28;20476;-77
2022/05/06 08:12:16;;;;;;;58.67;3.53;;;;;;;;;;5055097;28;20497;-77
2022/05/06 08:14:44;;;;;;;59.00;3.53;;;;;;;;;;5055344;28;20452;-77
2022/05/06 08:17:12;;;;;;;58.87;3.57;;;;;;;;;;5053580;28;20464;-77
2022/05/06 08:19:39;;;;;;;60.70;4.90;;;;;;;;;;5054539;28;20473;-77
2022/05/06 08:22:08;;;;;;;58.57;3.40;;;;;;;;;;5054515;28;20541;-77
2022/05/06 08:24:35;;;;;;;58.37;3.20;;;;;;;;;;5054392;28;20449;-77
2022/05/06 08:27:02;;;;;;;58.27;2.67;;;;;;;;;;5054858;28;20875;-77
2022/05/06 08:29:30;;;;;;;59.67;4.43;;;;;;;;;;5053735;28;20989;-77
2022/05/06 08:31:57;;;;;;;60.80;3.80;;;;;;;;;;5054368;28;20459;-77
2022/05/06 08:34:24;;;;;;;60.20;4.13;;;;;;;;;;5054277;28;20555;-77
2022/05/06 08:36:51;;;;;;;58.40;3.10;;;;;;;;;;5053504;28;20449;-77
2022/05/06 08:39:20;;;;;;;58.80;4.00;;;;;;;;;;5059980;28;20484;-77
2022/05/06 08:41:48;;;;;;;59.00;4.40;;;;;;;;;;5074250;28;20539;-77
2022/05/06 08:52:33;;;;;;;58.47;3.53;;;;;;;;;;5074639;28;20483;-77
2022/05/06 08:55:02;;;;;;;59.00;4.07;;;;;;;;;;5074684;28;20672;-77
2022/05/06 08:57:29;;;;;;;61.17;3.37;;;;;;;;;;5073895;28;20872;-77
2022/05/06 08:59:56;;;;;;;58.90;3.20;;;;;;;;;;5074625;28;20475;-77
2022/05/06 09:02:24;;;;;;;59.10;4.00;;;;;;;;;;5075131;28;20816;-77
2022/05/06 09:04:51;;;;;;;58.77;3.57;;;;;;;;;;5074497;28;20466;-77
2022/05/06 09:07:20;;;;;;;60.00;4.00;;;;;;;;;;5073991;28;20539;-77
2022/05/06 09:10:02;;;;;;;58.67;3.50;;;;;;;;;;5072311;28;21005;-77
2022/05/06 09:12:44;;;;;;;60.60;4.63;;;;;;;;;;5073929;28;20492;-77
2022/05/06 09:17:57;;;;;;;59.10;4.07;;;;;;;;;;5073698;28;20794;-77
2022/05/06 09:20:25;;;;;;;59.10;3.70;;;;;;;;;;5073953;28;20473;-77
2022/05/06 09:22:52;;;;;;;58.17;2.63;;;;;;;;;;5073585;28;20447;-77
2022/05/06 09:25:38;;;;;;;58.27;3.10;;;;;;;;;;5074001;28;20453;-77
2022/05/06 09:28:08;;;;;;;58.37;3.10;;;;;;;;;;5073439;28;20450;-78
2022/05/06 09:30:35;;;;;;;60.00;4.50;;;;;;;;;;5073866;28;20784;-77
2022/05/06 09:33:02;;;;;;;64.60;4.67;;;;;;;;;;5074073;28;20543;-77
2022/05/06 09:35:31;;;;;;;58.70;3.30;;;;;;;;;;5074031;28;20453;-77
2022/05/06 09:38:02;;;;;;;58.50;3.67;;;;;;;;;;5073662;28;20455;-77
2022/05/06 09:40:30;;;;;;;59.17;3.57;;;;;;;;;;5073852;28;20850;-77
2022/05/06 09:43:01;;;;;;;58.70;4.23;;;;;;;;;;5061327;28;20551;-74
2022/05/06 09:45:34;;;;;;;58.60;3.63;;;;;;;;;;5053256;28;20452;-77
2022/05/06 09:48:01;;;;;;;65.57;4.07;;;;;;;;;;5052599;28;20459;-77
2022/05/06 09:50:32;;;;;;;59.70;3.40;;;;;;;;;;5053689;28;20583;-77
2022/05/06 09:53:00;;;;;;;66.33;4.63;;;;;;;;;;5053175;28;20482;-78
2022/05/06 09:55:28;;;;;;;58.87;4.27;;;;;;;;;;5053694;28;20451;-77
2022/05/06 09:57:55;;;;;;;58.97;3.73;;;;;;;;;;5052603;28;20462;-77
2022/05/06 10:00:23;;;;;;;58.83;3.70;;;;;;;;;;5053065;28;20464;-77
2022/05/06 10:02:51;;;;;;;59.97;4.00;;;;;;;;;;5053733;28;20996;-77
2022/05/06 10:05:18;;;;;;;58.97;3.63;;;;;;;;;;5053351;28;20458;-77
2022/05/06 10:07:46;;;;;;;58.87;3.43;;;;;;;;;;5052623;28;20454;-77
2022/05/06 10:10:18;;;;;;;58.80;3.20;;;;;;;;;;5052691;28;20908;-77
2022/05/06 10:12:49;;;;;;;58.80;3.50;;;;;;;;;;5052414;28;20472;-77
2022/05/06 10:15:17;;;;;;;60.37;4.50;;;;;;;;;;5064890;28;20455;-77
2022/05/06 10:17:52;;;;;;;59.97;4.27;;;;;;;;;;5072119;28;20444;-77
2022/05/06 10:20:38;;;;;;;60.20;4.10;;;;;;;;;;5072472;28;20463;-77
2022/05/06 10:23:07;;;;;;;58.90;4.17;;;;;;;;;;5071949;28;20448;-77
2022/05/06 10:25:50;;;;;;;59.90;4.30;;;;;;;;;;5072428;28;20463;-77
2022/05/06 10:34:22;;;;;;;58.97;3.53;;;;;;;;;;5075661;28;21027;-79
2022/05/06 10:36:51;;;;;;;59.50;3.83;;;;;;;;;;5075260;28;20498;-78
2022/05/06 10:39:21;;;;;;;61.63;4.50;;;;;;;;;;5074612;28;20485;-78
2022/05/06 10:42:02;;;;;;;58.60;3.00;;;;;;;;;;5074400;28;20499;-78
2022/05/06 10:44:34;;;;;;;59.10;3.80;;;;;;;;;;5074218;28;20507;-78
2022/05/06 10:47:01;;;;;;;60.77;4.93;;;;;;;;;;5072149;28;20831;-78
2022/05/06 10:49:52;;;;;;;59.77;4.20;;;;;;;;;;5074294;28;20473;-78
2022/05/06 10:52:38;;;;;;;59.87;4.20;;;;;;;;;;5074393;28;20526;-78
2022/05/06 10:55:06;;;;;;;59.00;3.70;;;;;;;;;;5074259;28;20451;-78
2022/05/06 10:57:34;;;;;;;59.80;3.87;;;;;;;;;;5074058;28;20538;-78
2022/05/06 11:00:02;;;;;;;59.00;3.50;;;;;;;;;;5074447;28;20922;-78
2022/05/06 11:02:30;;;;;;;59.30;4.03;;;;;;;;;;5074178;28;20433;-78
2022/05/06 11:04:58;;;;;;;59.00;3.90;;;;;;;;;;5074550;28;20820;-78
2022/05/06 11:07:25;;;;;;;59.27;3.83;;;;;;;;;;5074017;28;20550;-78
2022/05/06 11:09:53;;;;;;;59.10;3.83;;;;;;;;;;5074168;28;20482;-78
2022/05/06 11:12:31;;;;;;;58.83;3.20;;;;;;;;;;5074341;28;20539;-79
2022/05/06 11:14:58;;;;;;;58.33;2.93;;;;;;;;;;5073838;28;20524;-78
2022/05/06 11:17:25;;;;;;;58.00;2.73;;;;;;;;;;5071352;28;20484;-78
2022/05/06 11:19:52;;;;;;;58.13;2.93;;;;;;;;;;5073452;28;20542;-78
2022/05/06 11:22:20;;;;;;;58.30;3.10;;;;;;;;;;5073252;28;20450;-78
2022/05/06 11:24:48;;;;;;;60.73;3.43;;;;;;;;;;5073015;28;20463;-78
2022/05/06 11:27:16;;;;;;;59.30;3.00;;;;;;;;;;5072164;28;20546;-78
2022/05/06 11:29:51;;;;;;;76.60;4.10;;;;;;;;;;5072580;28;21059;-78
2022/05/06 11:32:19;;;;;;;58.40;2.80;;;;;;;;;;5072243;28;20531;-78
2022/05/06 11:34:48;;;;;;;59.03;3.40;;;;;;;;;;5075787;28;20491;-78
2022/05/06 11:37:22;;;;;;;59.00;3.53;;;;;;;;;;5075483;28;20449;-78
2022/05/06 11:39:49;;;;;;;63.40;2.80;;;;;;;;;;5076128;28;20486;-78
2022/05/06 11:42:23;;;;;;;58.97;3.20;;;;;;;;;;5076075;28;20483;-78
2022/05/06 11:47:43;;;;;;;59.50;3.20;;;;;;;;;;5074495;28;20424;-79
2022/05/06 11:50:10;;;;;;;59.00;3.37;;;;;;;;;;5063454;28;20474;-78
2022/05/06 11:52:38;;;;;;;59.40;3.40;;;;;;;;;;5056452;28;20457;-79
2022/05/06 11:55:07;;;;;;;60.87;4.20;;;;;;;;;;5055275;28;20623;-78
2022/05/06 11:57:35;;;;;;;59.67;4.07;;;;;;;;;;5055280;28;20451;-78
2022/05/06 12:00:04;;;;;;;58.87;3.97;;;;;;;;;;5055840;28;20471;-78
2022/05/06 12:02:32;;;;;;;63.90;4.17;;;;;;;;;;5055212;28;20451;-78
2022/05/06 12:04:59;;;;;;;58.20;2.80;;;;;;;;;;5055357;28;20815;-79
2022/05/06 12:07:41;;;;;;;58.80;3.50;;;;;;;;;;5054197;28;20542;-78
2022/05/06 12:10:09;;;;;;;59.63;3.63;;;;;;;;;;5055235;28;20996;-78
2022/05/06 12:12:52;;;;;;;58.70;3.20;;;;;;;;;;5055509;28;20452;-78
2022/05/06 12:15:21;;;;;;;59.40;3.90;;;;;;;;;;5055347;28;20484;-78
2022/05/06 12:17:48;;;;;;;58.23;3.30;;;;;;;;;;5054523;28;20538;-78
2022/05/06 12:20:34;;;;;;;64.93;3.93;;;;;;;;;;5055721;28;20904;-78
2022/05/06 12:23:01;;;;;;;58.93;3.97;;;;;;;;;;5051990;28;20544;-78
2022/05/06 12:25:29;;;;;;;59.07;3.90;;;;;;;;;;5055203;28;20539;-79
2022/05/06 12:28:06;;;;;;;61.10;3.53;;;;;;;;;;5054626;28;20448;-78
2022/05/06 12:30:38;;;;;;;59.63;3.43;;;;;;;;;;5055285;28;21075;-78
2022/05/06 12:33:09;;;;;;;59.65;4.30;;;;;;;;;;5055008;28;20456;-78
2022/05/06 12:35:55;;;;;;;58.27;3.47;;;;;;;;;;5054890;28;20502;-78
2022/05/06 12:38:22;;;;;;;60.57;4.07;;;;;;;;;;5054536;28;20835;-79
2022/05/06 12:40:50;;;;;;;59.80;3.37;;;;;;;;;;5054373;28;20470;-79
2022/05/06 12:43:17;;;;;;;58.37;3.00;;;;;;;;;;5054463;28;20929;-78
2022/05/06 12:45:54;;;;;;;60.70;3.80;;;;;;;;;;5054352;28;20829;-79
2022/05/06 12:51:07;;;;;;;61.67;3.90;;;;;;;;;;5054325;28;20537;-78
2022/05/06 12:53:34;;;;;;;60.40;3.70;;;;;;;;;;5051514;28;20480;-79
2022/05/06 12:56:01;;;;;;;59.60;3.20;;;;;;;;;;5055321;28;20926;-79
2022/05/06 12:58:29;;;;;;;59.13;3.60;;;;;;;;;;5054933;28;20444;-78
2022/05/06 13:00:58;;;;;;;59.17;3.80;;;;;;;;;;5054666;28;20468;-79
2022/05/06 13:03:25;;;;;;;59.13;4.03;;;;;;;;;;5054247;28;20492;-78
2022/05/06 13:05:54;;;;;;;59.30;3.20;;;;;;;;;;5053980;28;20542;-78
2022/05/06 13:08:21;;;;;;;59.17;3.60;;;;;;;;;;5053916;28;21006;-79
2022/05/06 13:10:48;;;;;;;58.80;3.67;;;;;;;;;;5054169;28;20471;-78
2022/05/06 13:13:16;;;;;;;58.37;3.37;;;;;;;;;;5053933;28;20452;-78
2022/05/06 13:15:43;;;;;;;61.80;3.37;;;;;;;;;;5054130;28;20448;-78
2022/05/06 13:18:12;;;;;;;59.43;3.43;;;;;;;;;;5053105;28;20453;-79
2022/05/06 13:20:39;;;;;;;57.90;3.10;;;;;;;;;;5054154;28;20914;-79
2022/05/06 13:23:06;;;;;;;57.77;3.17;;;;;;;;;;5053381;28;20451;-78
2022/05/06 13:25:33;;;;;;;59.10;3.20;;;;;;;;;;5061776;28;20458;-78
2022/05/06 13:28:00;;;;;;;58.80;3.50;;;;;;;;;;5072851;28;20821;-78
2022/05/06 13:30:28;;;;;;;58.87;3.67;;;;;;;;;;5073493;28;20554;-78
2022/05/06 13:32:55;;;;;;;59.43;3.27;;;;;;;;;;5073246;28;20451;-78
2022/05/06 13:35:27;;;;;;;58.33;3.47;;;;;;;;;;5073022;28;20586;-78
2022/05/06 13:37:54;;;;;;;58.17;2.70;;;;;;;;;;5072491;28;20448;-78
2022/05/06 13:40:21;;;;;;;58.77;3.70;;;;;;;;;;5072927;28;20489;-78
2022/05/06 13:42:48;;;;;;;59.00;3.43;;;;;;;;;;5073027;28;20458;-77
2022/05/06 13:45:16;;;;;;;58.03;2.70;;;;;;;;;;5072720;28;20805;-78
2022/05/06 13:47:43;;;;;;;58.27;2.70;;;;;;;;;;5072516;28;20859;-78
2022/05/06 13:50:10;;;;;;;58.23;3.23;;;;;;;;;;5072640;28;20479;-78
2022/05/06 13:52:39;;;;;;;58.47;3.37;;;;;;;;;;5072398;28;20454;-78
2022/05/06 13:55:08;;;;;;;60.37;3.90;;;;;;;;;;5072537;28;20570;-78
2022/05/06 14:00:21;;;;;;;58.23;3.27;;;;;;;;;;5072468;28;20434;-78
2022/05/06 14:02:48;;;;;;;59.40;3.47;;;;;;;;;;5072490;28;20450;-78
2022/05/06 14:05:15;;;;;;;58.20;2.90;;;;;;;;;;5072553;28;20443;-77
2022/05/06 14:07:44;;;;;;;59.10;3.90;;;;;;;;;;5071604;28;20551;-78
2022/05/06 14:10:11;;;;;;;57.60;2.80;;;;;;;;;;5071809;28;20498;-78
2022/05/06 14:12:39;;;;;;;58.67;3.27;;;;;;;;;;5072362;28;20940;-78
2022/05/06 14:15:07;;;;;;;58.63;3.50;;;;;;;;;;5072343;28;20483;-78
2022/05/06 14:17:34;;;;;;;71.73;3.97;;;;;;;;;;5071921;28;20444;-78
2022/05/06 14:20:01;;;;;;;59.47;3.27;;;;;;;;;;5072141;28;20472;-78
2022/05/06 14:22:28;;;;;;;58.80;3.30;;;;;;;;;;5072013;28;20443;-77
2022/05/06 14:24:59;;;;;;;59.40;3.00;;;;;;;;;;5071871;28;20439;-78
2022/05/06 14:27:26;;;;;;;59.37;3.00;;;;;;;;;;5070701;28;20455;-78
2022/05/06 14:29:53;;;;;;;58.80;2.70;;;;;;;;;;5057738;28;20766;-77
2022/05/06 14:32:20;;;;;;;60.90;4.00;;;;;;;;;;5051847;28;20484;-78
2022/05/06 14:34:47;;;;;;;58.40;2.97;;;;;;;;;;5051772;28;20519;-78
2022/05/06 14:37:15;;;;;;;58.30;3.10;;;;;;;;;;5051242;28;20544;-78
2022/05/06 14:39:42;;;;;;;58.23;2.37;;;;;;;;;;5051635;28;20488;-76
2022/05/06 14:42:11;;;;;;;58.77;3.50;;;;;;;;;;5051876;28;20835;-76
2022/05/06 14:44:38;;;;;;;60.70;3.70;;;;;;;;;;5051891;28;20527;-77
2022/05/06 14:47:05;;;;;;;58.00;3.27;;;;;;;;;;5060434;28;20539;-73
2022/05/06 14:49:32;;;;;;;59.10;3.97;;;;;;;;;;5070469;28;20478;-74
2022/05/06 14:52:01;;;;;;;58.70;3.27;;;;;;;;;;5051372;28;20740;-74
2022/05/06 14:54:29;;;;;;;58.27;3.63;;;;;;;;;;5051345;28;21020;-74
2022/05/06 14:56:56;;;;;;;58.93;3.20;;;;;;;;;;5051774;28;20891;-74
2022/05/06 14:59:24;;;;;;;58.47;3.13;;;;;;;;;;5051009;28;21011;-74
2022/05/06 15:01:52;;;;;;;58.50;3.13;;;;;;;;;;5051606;28;20832;-74
2022/05/06 15:04:19;;;;;;;58.47;3.37;;;;;;;;;;5051462;28;20454;-74
2022/05/06 15:06:46;;;;;;;58.37;3.40;;;;;;;;;;5051343;28;20960;-74
2022/05/06 15:09:18;;;;;;;60.10;3.60;;;;;;;;;;5053204;28;20459;-74
2022/05/06 15:11:45;;;;;;;58.70;3.60;;;;;;;;;;5055760;28;20513;-74
2022/05/06 15:14:13;;;;;;;58.30;2.67;;;;;;;;;;5055451;28;20940;-74
2022/05/06 15:16:41;;;;;;;58.73;3.47;;;;;;;;;;5055365;28;20546;-74
2022/05/06 15:19:27;;;;;;;58.83;3.10;;;;;;;;;;5054623;28;20444;-74
2022/05/06 15:21:55;;;;;;;63.50;4.80;;;;;;;;;;5054994;28;20473;-74
2022/05/06 15:24:24;;;;;;;58.27;3.33;;;;;;;;;;5075483;28;20891;-74
2022/05/06 15:26:51;;;;;;;59.00;3.87;;;;;;;;;;5075365;28;20549;-74